sensor_id;sensor_type;location;lat;lon;timestamp;pressure;altitude;pressure_sealevel;temperature;humidity
74336;BME280;62755;-33.398;-70.572;2023-04-01T00:01:33;93015.69;;;29.38;20.47
74336;BME280;62755;-33.398;-70.572;2023-04-01T00:04:22;92992.19;;;29.19;20.34
74336;BME280;62755;-33.398;-70.572;2023-04-01T00:07:12;93017.59;;;29.43;20.07
74336;BME280;62755;-33.398;-70.572;2023-04-01T00:10:01;92999.78;;;29.18;20.38
74336;BME280;62755;-33.398;-70.572;2023-04-01T00:12:50;93019.41;;;29.28;20.62
74336;BME280;62755;-33.398;-70.572;2023-04-01T00:15:41;93022.69;;;29.13;19.99
74336;BME280;62755;-33.398;-70.572;2023-04-01T00:18:31;93018.84;;;29.03;21.07
74336;BME280;62755;-33.398;-70.572;2023-04-01T00:21:20;93024.78;;;29.07;20.20
74336;BME280;62755;-33.398;-70.572;2023-04-01T00:24:10;93026.72;;;29.12;19.35
74336;BME280;62755;-33.398;-70.572;2023-04-01T00:26:59;93026.50;;;29.10;20.56
74336;BME280;62755;-33.398;-70.572;2023-04-01T00:29:49;93029.06;;;28.95;20.34
74336;BME280;62755;-33.398;-70.572;2023-04-01T00:32:40;93040.13;;;28.95;20.94
74336;BME280;62755;-33.398;-70.572;2023-04-01T00:35:29;93035.00;;;28.99;21.03
74336;BME280;62755;-33.398;-70.572;2023-04-01T00:38:19;93036.34;;;28.80;21.67
74336;BME280;62755;-33.398;-70.572;2023-04-01T00:41:10;93038.94;;;28.91;20.82
74336;BME280;62755;-33.398;-70.572;2023-04-01T00:44:17;93047.94;;;28.78;21.58
74336;BME280;62755;-33.398;-70.572;2023-04-01T00:47:07;93045.72;;;28.77;22.06
74336;BME280;62755;-33.398;-70.572;2023-04-01T00:49:58;93048.25;;;28.75;22.53
74336;BME280;62755;-33.398;-70.572;2023-04-01T00:52:48;93046.56;;;28.72;22.97
74336;BME280;62755;-33.398;-70.572;2023-04-01T00:55:41;93055.56;;;28.72;22.88
74336;BME280;62755;-33.398;-70.572;2023-04-01T00:58:35;93029.44;;;28.60;22.79
74336;BME280;62755;-33.398;-70.572;2023-04-01T01:01:26;93048.75;;;28.60;23.01
74336;BME280;62755;-33.398;-70.572;2023-04-01T01:04:25;93055.13;;;28.68;22.81
74336;BME280;62755;-33.398;-70.572;2023-04-01T01:07:23;93054.25;;;28.60;23.15
74336;BME280;62755;-33.398;-70.572;2023-04-01T01:10:18;93051.47;;;28.47;22.98
74336;BME280;62755;-33.398;-70.572;2023-04-01T01:13:13;93039.97;;;28.43;23.72
74336;BME280;62755;-33.398;-70.572;2023-04-01T01:16:09;93048.69;;;28.47;22.98
74336;BME280;62755;-33.398;-70.572;2023-04-01T01:19:05;93051.91;;;28.51;23.85
74336;BME280;62755;-33.398;-70.572;2023-04-01T01:22:14;93058.81;;;28.26;23.26
74336;BME280;62755;-33.398;-70.572;2023-04-01T01:25:25;93058.56;;;28.11;22.51
74336;BME280;62755;-33.398;-70.572;2023-04-01T01:28:31;93055.72;;;28.16;22.38
74336;BME280;62755;-33.398;-70.572;2023-04-01T01:31:26;93054.78;;;28.27;21.94
74336;BME280;62755;-33.398;-70.572;2023-04-01T01:34:23;93055.38;;;28.07;22.54
74336;BME280;62755;-33.398;-70.572;2023-04-01T01:37:23;93060.03;;;27.93;22.98
74336;BME280;62755;-33.398;-70.572;2023-04-01T01:40:15;93061.47;;;27.81;22.66
74336;BME280;62755;-33.398;-70.572;2023-04-01T01:43:08;93056.31;;;27.72;23.08
74336;BME280;62755;-33.398;-70.572;2023-04-01T01:46:00;93061.06;;;27.71;22.87
74336;BME280;62755;-33.398;-70.572;2023-04-01T01:48:52;93063.84;;;27.71;22.48
74336;BME280;62755;-33.398;-70.572;2023-04-01T01:51:42;93057.97;;;27.80;21.58
74336;BME280;62755;-33.398;-70.572;2023-04-01T01:54:33;93059.00;;;27.77;21.85
74336;BME280;62755;-33.398;-70.572;2023-04-01T01:57:24;93059.31;;;27.93;21.21
74336;BME280;62755;-33.398;-70.572;2023-04-01T02:00:15;93055.88;;;27.87;22.22
74336;BME280;62755;-33.398;-70.572;2023-04-01T02:03:06;93049.31;;;27.28;22.10
74336;BME280;62755;-33.398;-70.572;2023-04-01T02:05:57;93050.44;;;27.20;21.98
74336;BME280;62755;-33.398;-70.572;2023-04-01T02:08:50;93057.50;;;27.39;22.42
74336;BME280;62755;-33.398;-70.572;2023-04-01T02:11:45;93047.63;;;27.25;22.67
74336;BME280;62755;-33.398;-70.572;2023-04-01T02:14:37;93051.19;;;27.20;22.88
74336;BME280;62755;-33.398;-70.572;2023-04-01T02:17:30;93052.59;;;27.08;22.91
74336;BME280;62755;-33.398;-70.572;2023-04-01T02:20:22;93046.41;;;27.02;23.45
74336;BME280;62755;-33.398;-70.572;2023-04-01T02:23:13;93051.31;;;27.09;23.43
74336;BME280;62755;-33.398;-70.572;2023-04-01T02:26:03;93054.06;;;27.09;23.42
74336;BME280;62755;-33.398;-70.572;2023-04-01T02:28:57;93045.81;;;27.09;23.46
74336;BME280;62755;-33.398;-70.572;2023-04-01T02:31:46;93050.75;;;27.16;23.15
74336;BME280;62755;-33.398;-70.572;2023-04-01T02:34:37;93049.47;;;27.17;24.03
74336;BME280;62755;-33.398;-70.572;2023-04-01T02:37:26;93055.19;;;27.01;23.63
74336;BME280;62755;-33.398;-70.572;2023-04-01T02:40:16;93043.66;;;26.78;24.18
74336;BME280;62755;-33.398;-70.572;2023-04-01T02:43:05;93041.13;;;26.80;24.34
74336;BME280;62755;-33.398;-70.572;2023-04-01T02:45:56;93034.03;;;26.60;24.37
74336;BME280;62755;-33.398;-70.572;2023-04-01T02:48:46;93033.22;;;26.71;23.47
74336;BME280;62755;-33.398;-70.572;2023-04-01T02:51:35;93040.72;;;26.94;22.80
74336;BME280;62755;-33.398;-70.572;2023-04-01T02:54:24;93031.81;;;26.83;23.62
74336;BME280;62755;-33.398;-70.572;2023-04-01T02:57:13;93031.63;;;26.81;23.58
74336;BME280;62755;-33.398;-70.572;2023-04-01T03:00:04;93008.28;;;26.58;23.09
74336;BME280;62755;-33.398;-70.572;2023-04-01T03:02:59;93025.03;;;26.60;23.50
74336;BME280;62755;-33.398;-70.572;2023-04-01T03:05:49;93022.94;;;26.71;23.73
74336;BME280;62755;-33.398;-70.572;2023-04-01T03:08:38;93017.31;;;26.58;23.86
74336;BME280;62755;-33.398;-70.572;2023-04-01T03:11:28;93012.50;;;26.64;23.33
74336;BME280;62755;-33.398;-70.572;2023-04-01T03:14:17;93012.44;;;26.70;23.51
74336;BME280;62755;-33.398;-70.572;2023-04-01T03:17:06;93007.06;;;26.83;23.41
74336;BME280;62755;-33.398;-70.572;2023-04-01T03:19:57;93009.22;;;26.66;23.09
74336;BME280;62755;-33.398;-70.572;2023-04-01T03:22:46;93005.31;;;26.32;23.22
74336;BME280;62755;-33.398;-70.572;2023-04-01T03:25:36;93008.06;;;26.32;23.88
74336;BME280;62755;-33.398;-70.572;2023-04-01T03:28:25;92997.06;;;26.32;23.25
74336;BME280;62755;-33.398;-70.572;2023-04-01T03:31:15;92996.06;;;25.99;23.82
74336;BME280;62755;-33.398;-70.572;2023-04-01T03:34:05;93002.13;;;25.92;24.19
74336;BME280;62755;-33.398;-70.572;2023-04-01T03:36:57;92995.69;;;25.84;23.95
74336;BME280;62755;-33.398;-70.572;2023-04-01T03:39:47;93003.22;;;26.14;23.06
74336;BME280;62755;-33.398;-70.572;2023-04-01T03:42:36;93003.22;;;26.14;23.55
74336;BME280;62755;-33.398;-70.572;2023-04-01T03:45:25;92997.06;;;26.32;23.21
74336;BME280;62755;-33.398;-70.572;2023-04-01T03:48:15;92983.44;;;26.45;23.24
74336;BME280;62755;-33.398;-70.572;2023-04-01T03:51:07;92981.53;;;26.58;23.31
74336;BME280;62755;-33.398;-70.572;2023-04-01T03:53:58;92980.50;;;26.61;22.97
74336;BME280;62755;-33.398;-70.572;2023-04-01T03:56:48;92976.66;;;26.70;23.91
74336;BME280;62755;-33.398;-70.572;2023-04-01T03:59:37;92985.91;;;26.19;24.64
74336;BME280;62755;-33.398;-70.572;2023-04-01T04:02:26;92983.53;;;26.04;24.50
74336;BME280;62755;-33.398;-70.572;2023-04-01T04:05:16;92975.97;;;25.80;24.04
74336;BME280;62755;-33.398;-70.572;2023-04-01T04:08:05;92978.47;;;25.78;23.60
74336;BME280;62755;-33.398;-70.572;2023-04-01T04:10:59;92975.56;;;25.65;23.82
74336;BME280;62755;-33.398;-70.572;2023-04-01T04:13:48;92979.63;;;25.59;23.48
74336;BME280;62755;-33.398;-70.572;2023-04-01T04:16:39;92973.47;;;25.82;23.11
74336;BME280;62755;-33.398;-70.572;2023-04-01T04:19:32;92967.88;;;25.93;23.04
74336;BME280;62755;-33.398;-70.572;2023-04-01T04:22:22;92968.97;;;25.79;22.93
74336;BME280;62755;-33.398;-70.572;2023-04-01T04:25:11;92950.81;;;26.00;23.02
74336;BME280;62755;-33.398;-70.572;2023-04-01T04:28:02;92958.44;;;26.19;23.74
74336;BME280;62755;-33.398;-70.572;2023-04-01T04:30:51;92959.38;;;25.91;23.88
74336;BME280;62755;-33.398;-70.572;2023-04-01T04:33:41;92964.56;;;26.00;23.46
74336;BME280;62755;-33.398;-70.572;2023-04-01T04:36:30;92970.09;;;25.95;24.08
74336;BME280;62755;-33.398;-70.572;2023-04-01T04:39:19;92969.63;;;25.91;23.29
74336;BME280;62755;-33.398;-70.572;2023-04-01T04:42:09;92970.38;;;25.91;22.90
74336;BME280;62755;-33.398;-70.572;2023-04-01T04:45:00;92967.03;;;25.74;23.69
74336;BME280;62755;-33.398;-70.572;2023-04-01T04:47:50;92965.91;;;25.88;23.54
74336;BME280;62755;-33.398;-70.572;2023-04-01T04:50:41;92969.69;;;25.85;24.29
74336;BME280;62755;-33.398;-70.572;2023-04-01T04:53:30;92963.94;;;25.83;24.22
74336;BME280;62755;-33.398;-70.572;2023-04-01T04:56:20;92957.91;;;25.90;23.71
74336;BME280;62755;-33.398;-70.572;2023-04-01T04:59:12;92962.94;;;25.86;23.64
74336;BME280;62755;-33.398;-70.572;2023-04-01T05:02:03;92958.91;;;25.87;23.45
74336;BME280;62755;-33.398;-70.572;2023-04-01T05:04:52;92960.91;;;25.92;24.02
74336;BME280;62755;-33.398;-70.572;2023-04-01T05:07:41;92940.38;;;25.93;23.10
74336;BME280;62755;-33.398;-70.572;2023-04-01T05:10:31;92940.03;;;26.02;22.23
74336;BME280;62755;-33.398;-70.572;2023-04-01T05:13:20;92951.88;;;25.62;23.27
74336;BME280;62755;-33.398;-70.572;2023-04-01T05:16:11;92953.44;;;25.52;23.25
74336;BME280;62755;-33.398;-70.572;2023-04-01T05:19:02;92946.91;;;25.61;23.14
74336;BME280;62755;-33.398;-70.572;2023-04-01T05:21:51;92937.91;;;25.60;23.01
74336;BME280;62755;-33.398;-70.572;2023-04-01T05:24:41;92910.31;;;25.47;22.92
74336;BME280;62755;-33.398;-70.572;2023-04-01T05:27:30;92932.94;;;25.59;23.89
74336;BME280;62755;-33.398;-70.572;2023-04-01T05:30:20;92940.06;;;25.32;23.84
74336;BME280;62755;-33.398;-70.572;2023-04-01T05:33:10;92931.63;;;25.24;23.58
74336;BME280;62755;-33.398;-70.572;2023-04-01T05:36:09;92922.63;;;25.24;23.64
74336;BME280;62755;-33.398;-70.572;2023-04-01T05:38:58;92924.38;;;25.27;23.78
74336;BME280;62755;-33.398;-70.572;2023-04-01T05:41:48;92923.09;;;25.28;23.93
74336;BME280;62755;-33.398;-70.572;2023-04-01T05:44:37;92924.63;;;25.29;23.74
74336;BME280;62755;-33.398;-70.572;2023-04-01T05:47:26;92916.56;;;25.37;23.47
74336;BME280;62755;-33.398;-70.572;2023-04-01T05:50:16;92917.38;;;25.26;23.41
74336;BME280;62755;-33.398;-70.572;2023-04-01T05:53:07;92907.75;;;25.08;24.26
74336;BME280;62755;-33.398;-70.572;2023-04-01T05:55:56;92911.25;;;25.09;24.23
74336;BME280;62755;-33.398;-70.572;2023-04-01T05:58:47;92917.06;;;25.00;24.67
74336;BME280;62755;-33.398;-70.572;2023-04-01T06:01:39;92920.09;;;24.91;24.37
74336;BME280;62755;-33.398;-70.572;2023-04-01T06:04:34;92912.91;;;24.82;24.10
74336;BME280;62755;-33.398;-70.572;2023-04-01T06:07:24;92917.91;;;24.73;24.41
74336;BME280;62755;-33.398;-70.572;2023-04-01T06:10:18;92914.84;;;24.93;23.37
74336;BME280;62755;-33.398;-70.572;2023-04-01T06:13:10;92917.28;;;25.02;22.73
74336;BME280;62755;-33.398;-70.572;2023-04-01T06:16:07;92912.66;;;24.75;22.93
74336;BME280;62755;-33.398;-70.572;2023-04-01T06:19:14;92917.09;;;24.89;23.22
74336;BME280;62755;-33.398;-70.572;2023-04-01T06:25:45;92912.84;;;24.93;24.44
74336;BME280;62755;-33.398;-70.572;2023-04-01T06:28:53;92917.31;;;24.96;24.32
74336;BME280;62755;-33.398;-70.572;2023-04-01T06:32:03;92901.47;;;24.67;24.66
74336;BME280;62755;-33.398;-70.572;2023-04-01T06:35:17;92906.59;;;24.93;24.87
74336;BME280;62755;-33.398;-70.572;2023-04-01T06:38:20;92897.53;;;25.09;25.57
74336;BME280;62755;-33.398;-70.572;2023-04-01T06:44:40;92900.63;;;24.89;25.39
74336;BME280;62755;-33.398;-70.572;2023-04-01T06:47:41;92906.81;;;24.43;25.35
74336;BME280;62755;-33.398;-70.572;2023-04-01T06:50:40;92902.88;;;24.16;25.62
74336;BME280;62755;-33.398;-70.572;2023-04-01T06:53:36;92894.06;;;24.46;25.18
74336;BME280;62755;-33.398;-70.572;2023-04-01T06:56:32;92895.41;;;24.22;24.93
74336;BME280;62755;-33.398;-70.572;2023-04-01T06:59:26;92888.44;;;24.21;24.61
74336;BME280;62755;-33.398;-70.572;2023-04-01T07:02:24;92882.97;;;24.10;24.48
74336;BME280;62755;-33.398;-70.572;2023-04-01T07:05:15;92878.47;;;23.96;24.46
74336;BME280;62755;-33.398;-70.572;2023-04-01T07:08:08;92877.50;;;23.99;24.60
74336;BME280;62755;-33.398;-70.572;2023-04-01T07:11:02;92865.81;;;23.93;25.03
74336;BME280;62755;-33.398;-70.572;2023-04-01T07:13:55;92871.78;;;23.92;24.58
74336;BME280;62755;-33.398;-70.572;2023-04-01T07:16:51;92869.28;;;23.88;23.89
74336;BME280;62755;-33.398;-70.572;2023-04-01T07:19:45;92865.28;;;23.95;23.77
74336;BME280;62755;-33.398;-70.572;2023-04-01T07:22:39;92873.03;;;23.91;23.84
74336;BME280;62755;-33.398;-70.572;2023-04-01T07:25:33;92873.56;;;23.78;23.95
74336;BME280;62755;-33.398;-70.572;2023-04-01T07:28:23;92878.53;;;23.74;23.98
74336;BME280;62755;-33.398;-70.572;2023-04-01T07:31:22;92867.59;;;23.74;23.82
74336;BME280;62755;-33.398;-70.572;2023-04-01T07:34:22;92873.53;;;23.84;24.39
74336;BME280;62755;-33.398;-70.572;2023-04-01T07:37:15;92871.25;;;24.10;24.47
74336;BME280;62755;-33.398;-70.572;2023-04-01T07:40:17;92866.78;;;24.07;24.33
74336;BME280;62755;-33.398;-70.572;2023-04-01T07:46:59;92857.59;;;23.93;23.91
74336;BME280;62755;-33.398;-70.572;2023-04-01T07:50:01;92844.63;;;23.99;23.87
74336;BME280;62755;-33.398;-70.572;2023-04-01T07:52:58;92845.69;;;23.74;23.76
74336;BME280;62755;-33.398;-70.572;2023-04-01T07:55:56;92853.66;;;23.61;24.09
74336;BME280;62755;-33.398;-70.572;2023-04-01T07:58:55;92848.66;;;23.65;23.63
74336;BME280;62755;-33.398;-70.572;2023-04-01T08:01:50;92854.88;;;23.88;23.49
74336;BME280;62755;-33.398;-70.572;2023-04-01T08:04:58;92852.34;;;23.95;23.35
74336;BME280;62755;-33.398;-70.572;2023-04-01T08:07:55;92838.41;;;23.93;23.38
74336;BME280;62755;-33.398;-70.572;2023-04-01T08:10:52;92833.69;;;23.88;22.90
74336;BME280;62755;-33.398;-70.572;2023-04-01T08:13:48;92836.66;;;24.01;22.37
74336;BME280;62755;-33.398;-70.572;2023-04-01T08:16:46;92844.38;;;24.08;22.27
74336;BME280;62755;-33.398;-70.572;2023-04-01T08:19:51;92833.16;;;24.06;22.51
74336;BME280;62755;-33.398;-70.572;2023-04-01T08:22:50;92836.16;;;23.86;23.10
74336;BME280;62755;-33.398;-70.572;2023-04-01T08:25:45;92824.72;;;23.82;24.00
74336;BME280;62755;-33.398;-70.572;2023-04-01T08:28:41;92818.22;;;23.96;23.70
74336;BME280;62755;-33.398;-70.572;2023-04-01T08:31:36;92818.47;;;24.09;23.24
74336;BME280;62755;-33.398;-70.572;2023-04-01T08:34:32;92830.09;;;24.26;23.40
74336;BME280;62755;-33.398;-70.572;2023-04-01T08:37:26;92834.09;;;24.25;22.78
74336;BME280;62755;-33.398;-70.572;2023-04-01T08:40:50;92823.84;;;24.31;21.72
74336;BME280;62755;-33.398;-70.572;2023-04-01T08:43:52;92832.59;;;24.24;22.69
74336;BME280;62755;-33.398;-70.572;2023-04-01T08:47:16;92830.16;;;24.15;23.38
74336;BME280;62755;-33.398;-70.572;2023-04-01T08:53:40;92847.31;;;24.16;21.99
74336;BME280;62755;-33.398;-70.572;2023-04-01T08:56:36;92841.38;;;24.17;22.14
74336;BME280;62755;-33.398;-70.572;2023-04-01T08:59:41;92849.09;;;24.13;22.13
74336;BME280;62755;-33.398;-70.572;2023-04-01T09:02:52;92841.63;;;23.97;23.18
74336;BME280;62755;-33.398;-70.572;2023-04-01T09:06:20;92842.91;;;23.85;23.55
74336;BME280;62755;-33.398;-70.572;2023-04-01T09:12:52;92830.25;;;23.60;23.73
74336;BME280;62755;-33.398;-70.572;2023-04-01T09:15:59;92833.50;;;23.64;24.45
74336;BME280;62755;-33.398;-70.572;2023-04-01T09:19:17;92813.84;;;23.43;24.64
74336;BME280;62755;-33.398;-70.572;2023-04-01T09:22:21;92815.84;;;23.32;24.23
74336;BME280;62755;-33.398;-70.572;2023-04-01T09:25:36;92819.84;;;23.31;24.76
74336;BME280;62755;-33.398;-70.572;2023-04-01T09:28:37;92820.59;;;23.42;24.75
74336;BME280;62755;-33.398;-70.572;2023-04-01T09:31:41;92823.03;;;23.57;24.48
74336;BME280;62755;-33.398;-70.572;2023-04-01T09:34:51;92810.84;;;23.58;24.66
74336;BME280;62755;-33.398;-70.572;2023-04-01T09:37:53;92811.34;;;23.18;24.67
74336;BME280;62755;-33.398;-70.572;2023-04-01T09:40:47;92826.78;;;23.43;24.75
74336;BME280;62755;-33.398;-70.572;2023-04-01T09:44:03;92821.81;;;23.36;24.30
74336;BME280;62755;-33.398;-70.572;2023-04-01T09:47:01;92811.38;;;23.29;24.20
74336;BME280;62755;-33.398;-70.572;2023-04-01T09:53:19;92813.34;;;23.56;23.54
74336;BME280;62755;-33.398;-70.572;2023-04-01T09:56:53;92827.25;;;23.80;23.50
74336;BME280;62755;-33.398;-70.572;2023-04-01T10:27:10;92796.91;;;22.67;25.51
74336;BME280;62755;-33.398;-70.572;2023-04-01T10:30:41;92794.41;;;22.69;25.48
74336;BME280;62755;-33.398;-70.572;2023-04-01T10:37:22;92801.63;;;22.78;26.22
74336;BME280;62755;-33.398;-70.572;2023-04-01T10:40:36;92807.38;;;23.19;26.14
74336;BME280;62755;-33.398;-70.572;2023-04-01T10:43:49;92810.63;;;23.34;25.43
74336;BME280;62755;-33.398;-70.572;2023-04-01T10:54:18;92822.28;;;23.18;25.11
74336;BME280;62755;-33.398;-70.572;2023-04-01T10:57:22;92826.75;;;22.93;24.49
74336;BME280;62755;-33.398;-70.572;2023-04-01T11:00:38;92836.94;;;22.98;24.86
74336;BME280;62755;-33.398;-70.572;2023-04-01T11:07:39;92844.91;;;22.96;24.95
74336;BME280;62755;-33.398;-70.572;2023-04-01T11:17:45;92834.75;;;23.13;24.98
74336;BME280;62755;-33.398;-70.572;2023-04-01T11:24:32;92842.72;;;23.39;25.56
74336;BME280;62755;-33.398;-70.572;2023-04-01T11:27:37;92835.50;;;23.41;25.30
74336;BME280;62755;-33.398;-70.572;2023-04-01T11:30:59;92832.28;;;23.32;25.13
74336;BME280;62755;-33.398;-70.572;2023-04-01T11:34:00;92844.19;;;23.18;26.24
74336;BME280;62755;-33.398;-70.572;2023-04-01T11:36:59;92843.19;;;23.10;24.89
74336;BME280;62755;-33.398;-70.572;2023-04-01T11:40:01;92841.69;;;23.20;23.93
74336;BME280;62755;-33.398;-70.572;2023-04-01T11:42:57;92842.19;;;23.13;23.24
74336;BME280;62755;-33.398;-70.572;2023-04-01T11:45:53;92837.72;;;23.21;23.76
74336;BME280;62755;-33.398;-70.572;2023-04-01T11:48:56;92839.72;;;23.15;23.40
74336;BME280;62755;-33.398;-70.572;2023-04-01T11:52:02;92845.91;;;23.04;23.64
74336;BME280;62755;-33.398;-70.572;2023-04-01T11:54:57;92844.69;;;23.11;23.61
74336;BME280;62755;-33.398;-70.572;2023-04-01T11:58:22;92845.66;;;22.97;23.95
74336;BME280;62755;-33.398;-70.572;2023-04-01T12:01:23;92848.59;;;22.82;24.22
74336;BME280;62755;-33.398;-70.572;2023-04-01T12:04:55;92842.41;;;22.98;24.13
74336;BME280;62755;-33.398;-70.572;2023-04-01T12:08:06;92850.16;;;23.11;24.40
74336;BME280;62755;-33.398;-70.572;2023-04-01T12:11:00;92830.25;;;23.16;24.87
74336;BME280;62755;-33.398;-70.572;2023-04-01T12:13:53;92854.16;;;23.32;25.37
74336;BME280;62755;-33.398;-70.572;2023-04-01T12:16:55;92855.88;;;23.24;25.13
74336;BME280;62755;-33.398;-70.572;2023-04-01T12:19:51;92850.66;;;23.26;24.28
74336;BME280;62755;-33.398;-70.572;2023-04-01T12:22:50;92870.59;;;23.54;24.19
74336;BME280;62755;-33.398;-70.572;2023-04-01T12:26:18;92869.56;;;23.63;23.84
74336;BME280;62755;-33.398;-70.572;2023-04-01T12:29:18;92871.59;;;23.62;23.44
74336;BME280;62755;-33.398;-70.572;2023-04-01T12:32:20;92876.06;;;23.54;23.83
74336;BME280;62755;-33.398;-70.572;2023-04-01T12:35:20;92880.06;;;23.59;23.62
74336;BME280;62755;-33.398;-70.572;2023-04-01T12:38:29;92863.38;;;23.45;23.01
74336;BME280;62755;-33.398;-70.572;2023-04-01T12:41:26;92886.50;;;23.72;23.04
74336;BME280;62755;-33.398;-70.572;2023-04-01T12:44:33;92900.19;;;23.78;22.78
74336;BME280;62755;-33.398;-70.572;2023-04-01T12:47:56;92908.41;;;23.72;23.06
74336;BME280;62755;-33.398;-70.572;2023-04-01T12:51:21;92909.41;;;23.86;23.79
74336;BME280;62755;-33.398;-70.572;2023-04-01T13:01:15;92929.31;;;23.97;25.07
74336;BME280;62755;-33.398;-70.572;2023-04-01T13:04:38;92923.09;;;24.02;25.00
74336;BME280;62755;-33.398;-70.572;2023-04-01T13:07:50;92927.78;;;23.96;25.91
74336;BME280;62755;-33.398;-70.572;2023-04-01T13:11:13;92930.28;;;23.94;26.84
74336;BME280;62755;-33.398;-70.572;2023-04-01T13:14:19;92934.53;;;23.84;27.42
74336;BME280;62755;-33.398;-70.572;2023-04-01T13:17:18;92934.28;;;24.04;26.61
74336;BME280;62755;-33.398;-70.572;2023-04-01T13:20:16;92924.81;;;23.83;27.47
74336;BME280;62755;-33.398;-70.572;2023-04-01T13:23:19;92946.72;;;23.94;27.35
74336;BME280;62755;-33.398;-70.572;2023-04-01T13:26:20;92946.50;;;24.03;27.48
74336;BME280;62755;-33.398;-70.572;2023-04-01T13:29:15;92941.72;;;23.98;27.39
74336;BME280;62755;-33.398;-70.572;2023-04-01T13:32:18;92951.44;;;24.32;26.71
74336;BME280;62755;-33.398;-70.572;2023-04-01T13:35:20;92947.66;;;24.47;26.27
74336;BME280;62755;-33.398;-70.572;2023-04-01T13:41:59;92956.63;;;24.53;25.99
74336;BME280;62755;-33.398;-70.572;2023-04-01T13:44:57;92956.34;;;24.62;25.01
74336;BME280;62755;-33.398;-70.572;2023-04-01T13:58:30;92947.50;;;24.91;23.13
74336;BME280;62755;-33.398;-70.572;2023-04-01T14:01:32;92950.97;;;24.97;22.57
74336;BME280;62755;-33.398;-70.572;2023-04-01T14:04:53;92961.50;;;24.87;23.13
74336;BME280;62755;-33.398;-70.572;2023-04-01T14:07:58;92958.69;;;25.04;22.97
74336;BME280;62755;-33.398;-70.572;2023-04-01T14:10:59;92960.97;;;25.00;23.25
74336;BME280;62755;-33.398;-70.572;2023-04-01T14:14:01;92957.41;;;25.10;22.85
74336;BME280;62755;-33.398;-70.572;2023-04-01T14:17:17;92958.88;;;25.17;22.94
74336;BME280;62755;-33.398;-70.572;2023-04-01T14:20:27;92934.47;;;25.08;22.86
74336;BME280;62755;-33.398;-70.572;2023-04-01T14:23:39;92953.53;;;25.30;22.83
74336;BME280;62755;-33.398;-70.572;2023-04-01T14:26:57;92960.69;;;25.50;22.86
74336;BME280;62755;-33.398;-70.572;2023-04-01T14:30:04;92953.53;;;25.76;22.19
74336;BME280;62755;-33.398;-70.572;2023-04-01T14:33:11;92953.31;;;25.98;22.05
74336;BME280;62755;-33.398;-70.572;2023-04-01T14:39:41;92945.31;;;26.54;21.49
74336;BME280;62755;-33.398;-70.572;2023-04-01T14:46:05;92949.25;;;26.83;21.54
74336;BME280;62755;-33.398;-70.572;2023-04-01T14:48:59;92950.44;;;27.12;21.36
74336;BME280;62755;-33.398;-70.572;2023-04-01T14:51:52;92954.19;;;27.51;20.27
74336;BME280;62755;-33.398;-70.572;2023-04-01T14:54:44;92951.91;;;27.68;20.00
74336;BME280;62755;-33.398;-70.572;2023-04-01T14:57:35;92955.28;;;27.93;19.89
74336;BME280;62755;-33.398;-70.572;2023-04-01T15:00:24;92958.69;;;28.31;19.48
74336;BME280;62755;-33.398;-70.572;2023-04-01T15:03:21;92953.03;;;28.81;19.08
74336;BME280;62755;-33.398;-70.572;2023-04-01T15:06:35;92948.63;;;29.25;18.85
74336;BME280;62755;-33.398;-70.572;2023-04-01T15:09:35;92955.97;;;29.35;19.13
74336;BME280;62755;-33.398;-70.572;2023-04-01T15:12:30;92952.50;;;29.56;18.98
74336;BME280;62755;-33.398;-70.572;2023-04-01T15:15:33;92955.13;;;30.28;18.04
74336;BME280;62755;-33.398;-70.572;2023-04-01T15:18:34;92956.91;;;30.26;17.95
74336;BME280;62755;-33.398;-70.572;2023-04-01T15:21:47;92961.38;;;30.29;17.84
74336;BME280;62755;-33.398;-70.572;2023-04-01T15:24:46;92958.94;;;31.02;17.06
74336;BME280;62755;-33.398;-70.572;2023-04-01T15:27:39;92946.41;;;31.01;17.06
74336;BME280;62755;-33.398;-70.572;2023-04-01T15:30:40;92957.72;;;31.47;16.86
74336;BME280;62755;-33.398;-70.572;2023-04-01T15:33:57;92957.22;;;31.71;17.19
74336;BME280;62755;-33.398;-70.572;2023-04-01T15:36:55;92948.09;;;32.14;16.92
74336;BME280;62755;-33.398;-70.572;2023-04-01T15:39:54;92956.47;;;32.59;16.60
74336;BME280;62755;-33.398;-70.572;2023-04-01T15:42:54;92957.72;;;33.03;16.25
74336;BME280;62755;-33.398;-70.572;2023-04-01T15:45:51;92963.47;;;32.98;16.32
74336;BME280;62755;-33.398;-70.572;2023-04-01T15:48:58;92971.44;;;33.01;16.41
74336;BME280;62755;-33.398;-70.572;2023-04-01T15:51:58;92958.88;;;33.40;15.88
74336;BME280;62755;-33.398;-70.572;2023-04-01T15:55:17;92973.47;;;34.03;15.67
74336;BME280;62755;-33.398;-70.572;2023-04-01T15:58:34;92962.16;;;33.68;15.41
74336;BME280;62755;-33.398;-70.572;2023-04-01T16:01:36;92953.31;;;33.55;15.55
74336;BME280;62755;-33.398;-70.572;2023-04-01T16:04:43;92955.94;;;33.38;15.53
74336;BME280;62755;-33.398;-70.572;2023-04-01T16:07:55;92959.28;;;33.84;14.95
74336;BME280;62755;-33.398;-70.572;2023-04-01T16:11:10;92945.16;;;33.57;14.85
74336;BME280;62755;-33.398;-70.572;2023-04-01T16:14:13;92955.78;;;34.15;14.60
74336;BME280;62755;-33.398;-70.572;2023-04-01T16:17:17;92953.97;;;34.35;14.64
74336;BME280;62755;-33.398;-70.572;2023-04-01T16:20:19;92951.13;;;34.42;14.51
74336;BME280;62755;-33.398;-70.572;2023-04-01T16:23:16;92947.94;;;34.46;15.25
74336;BME280;62755;-33.398;-70.572;2023-04-01T16:26:09;92954.53;;;34.83;14.45
74336;BME280;62755;-33.398;-70.572;2023-04-01T16:29:09;92942.88;;;34.77;13.81
74336;BME280;62755;-33.398;-70.572;2023-04-01T16:32:18;92951.78;;;35.17;13.50
74336;BME280;62755;-33.398;-70.572;2023-04-01T16:35:42;92945.72;;;35.28;13.42
74336;BME280;62755;-33.398;-70.572;2023-04-01T16:38:38;92934.34;;;34.75;13.78
74336;BME280;62755;-33.398;-70.572;2023-04-01T16:41:31;92930.88;;;35.60;13.30
74336;BME280;62755;-33.398;-70.572;2023-04-01T16:44:24;92927.22;;;36.10;13.01
74336;BME280;62755;-33.398;-70.572;2023-04-01T16:47:17;92921.69;;;35.93;13.28
74336;BME280;62755;-33.398;-70.572;2023-04-01T16:50:14;92920.75;;;35.64;13.38